Portada
METAR-TAF:

METAR-TAF

Aeroports :

Aeroport d'Ouagadougou

Ouagadougou, Burkina Faso

latitud: 12-21N, longitud: 001-31W, altitud: 316 m

Observació

L'informe es va fer fa 53 minuts, a les 13:00 UTC
Vent 13 kt del Est/Nord-Est, variant entre Nord/Nord-Est i Est
Temperatura 32°C
Humitat 8%
Pressió 1014 hPa
Visibilitat: 3500 m
Pols estès

METAR: DFFD 271300Z 06013KT 030V090 3500 DU NSC 32/M06 Q1014 NOSIG

Hora: 13:53 (13:53 UTC)

Pronòstic

L'informe es va fer fa 2 hores i 53 minuts, a les 11:00 UTC
Pronòstic vàlid del 27 a les 12 UTC al 28 a les 18 UTC
Vent 10 kt del Est amb ràfegues de 20 kt
Visibilitat: 3500 m
Temporalment
l' 27 a les 17 UTC al 27 a les 21 UTC
Visibilitat: 2500 m
Pols estès
Temporalment
l' 28 a les 06 UTC al 28 a les 10 UTC
Visibilitat: 2500 m
Pols estès

TAF: DFFD 271100Z 2712/2818 08010G20KT 3500 NSC TEMPO 2717/2721 2500 DU TEMPO 2806/2810 2500 DU

Observacions i pronòstics meteorològics de més de 4000 aeroports (METAR i TAF).

Les estacions disponibles són els punts grocs i vermells al mapa.

Posi el ratolí al punt desitjat per veure el nom de l'estació.

Feu clic per veure les observacions i els pronòstics meteorològics.

Per canviar el mapa: feu clic els botons verds amb una creu de color negre per apropar; al botó verd amb un guió per allunyar la imatge; o en les fletxes verdes per a mapes adjacents.


METAR-TAF: